sensor_id;sensor_type;location;lat;lon;timestamp;temperature;humidity
2407;DHT22;37709;53.480;9.688;2022-07-29T00:01:41;9.10;99.90
2407;DHT22;37709;53.480;9.688;2022-07-29T00:04:10;9.10;99.90
2407;DHT22;37709;53.480;9.688;2022-07-29T00:06:37;9.10;99.90
2407;DHT22;37709;53.480;9.688;2022-07-29T00:09:05;9.10;99.90
2407;DHT22;37709;53.480;9.688;2022-07-29T00:11:33;9.20;99.90
2407;DHT22;37709;53.480;9.688;2022-07-29T00:14:01;9.30;99.90
2407;DHT22;37709;53.480;9.688;2022-07-29T00:16:28;9.20;99.90
2407;DHT22;37709;53.480;9.688;2022-07-29T00:18:57;9.30;99.90
2407;DHT22;37709;53.480;9.688;2022-07-29T00:21:29;9.20;99.90
2407;DHT22;37709;53.480;9.688;2022-07-29T00:23:56;9.10;99.90
2407;DHT22;37709;53.480;9.688;2022-07-29T00:26:24;9.00;99.90
2407;DHT22;37709;53.480;9.688;2022-07-29T00:28:52;8.90;99.90
2407;DHT22;37709;53.480;9.688;2022-07-29T00:31:40;8.80;99.90
2407;DHT22;37709;53.480;9.688;2022-07-29T00:34:07;8.80;99.90
2407;DHT22;37709;53.480;9.688;2022-07-29T00:36:55;8.80;99.90
2407;DHT22;37709;53.480;9.688;2022-07-29T00:39:22;8.80;99.90
2407;DHT22;37709;53.480;9.688;2022-07-29T00:41:50;8.80;99.90
2407;DHT22;37709;53.480;9.688;2022-07-29T00:44:19;8.80;99.90
2407;DHT22;37709;53.480;9.688;2022-07-29T00:46:46;8.80;99.90
2407;DHT22;37709;53.480;9.688;2022-07-29T00:49:14;8.90;99.90
2407;DHT22;37709;53.480;9.688;2022-07-29T00:51:41;8.80;99.90
2407;DHT22;37709;53.480;9.688;2022-07-29T00:54:10;8.80;99.90
2407;DHT22;37709;53.480;9.688;2022-07-29T00:56:37;8.80;99.90
2407;DHT22;37709;53.480;9.688;2022-07-29T00:59:05;8.80;99.90
2407;DHT22;37709;53.480;9.688;2022-07-29T01:01:33;8.80;99.90
2407;DHT22;37709;53.480;9.688;2022-07-29T01:04:00;8.80;99.90
2407;DHT22;37709;53.480;9.688;2022-07-29T01:06:29;8.70;99.90
2407;DHT22;37709;53.480;9.688;2022-07-29T01:08:58;8.70;99.90
2407;DHT22;37709;53.480;9.688;2022-07-29T01:11:25;8.70;99.90
2407;DHT22;37709;53.480;9.688;2022-07-29T01:13:53;8.70;99.90
2407;DHT22;37709;53.480;9.688;2022-07-29T01:16:32;8.60;99.90
2407;DHT22;37709;53.480;9.688;2022-07-29T01:19:23;8.60;99.90
2407;DHT22;37709;53.480;9.688;2022-07-29T01:22:01;8.60;99.90
2407;DHT22;37709;53.480;9.688;2022-07-29T01:25:03;8.70;99.90
2407;DHT22;37709;53.480;9.688;2022-07-29T01:27:44;8.80;99.90
2407;DHT22;37709;53.480;9.688;2022-07-29T01:30:16;8.80;99.90
2407;DHT22;37709;53.480;9.688;2022-07-29T01:32:47;8.80;99.90
2407;DHT22;37709;53.480;9.688;2022-07-29T01:35:23;8.80;99.90
2407;DHT22;37709;53.480;9.688;2022-07-29T01:37:57;8.80;99.90
2407;DHT22;37709;53.480;9.688;2022-07-29T01:40:36;8.90;99.90
2407;DHT22;37709;53.480;9.688;2022-07-29T01:43:14;8.90;99.90
2407;DHT22;37709;53.480;9.688;2022-07-29T01:45:47;9.00;99.90
2407;DHT22;37709;53.480;9.688;2022-07-29T01:48:36;9.00;99.90
2407;DHT22;37709;53.480;9.688;2022-07-29T01:51:09;9.00;99.90
2407;DHT22;37709;53.480;9.688;2022-07-29T01:53:46;9.10;99.90
2407;DHT22;37709;53.480;9.688;2022-07-29T01:56:16;9.10;99.90
2407;DHT22;37709;53.480;9.688;2022-07-29T01:58:46;9.20;99.90
2407;DHT22;37709;53.480;9.688;2022-07-29T02:01:16;9.20;99.90
2407;DHT22;37709;53.480;9.688;2022-07-29T02:03:46;9.30;99.90
2407;DHT22;37709;53.480;9.688;2022-07-29T02:06:18;9.40;99.90
2407;DHT22;37709;53.480;9.688;2022-07-29T02:08:47;9.50;99.90
2407;DHT22;37709;53.480;9.688;2022-07-29T02:11:16;9.60;99.90
2407;DHT22;37709;53.480;9.688;2022-07-29T02:13:44;9.70;99.90
2407;DHT22;37709;53.480;9.688;2022-07-29T02:16:15;9.80;99.90
2407;DHT22;37709;53.480;9.688;2022-07-29T02:18:45;9.90;99.90
2407;DHT22;37709;53.480;9.688;2022-07-29T02:21:19;10.10;99.90
2407;DHT22;37709;53.480;9.688;2022-07-29T02:23:50;10.20;99.90
2407;DHT22;37709;53.480;9.688;2022-07-29T02:26:20;10.20;99.90
2407;DHT22;37709;53.480;9.688;2022-07-29T02:28:50;10.20;99.90
2407;DHT22;37709;53.480;9.688;2022-07-29T02:31:21;10.20;99.90
2407;DHT22;37709;53.480;9.688;2022-07-29T02:33:50;10.10;99.90
2407;DHT22;37709;53.480;9.688;2022-07-29T02:36:21;10.20;99.90
2407;DHT22;37709;53.480;9.688;2022-07-29T02:38:50;10.20;99.90
2407;DHT22;37709;53.480;9.688;2022-07-29T02:41:40;10.30;99.90
2407;DHT22;37709;53.480;9.688;2022-07-29T02:44:19;10.30;99.90
2407;DHT22;37709;53.480;9.688;2022-07-29T02:47:01;10.40;99.90
2407;DHT22;37709;53.480;9.688;2022-07-29T02:49:37;10.50;99.90
2407;DHT22;37709;53.480;9.688;2022-07-29T02:52:31;10.60;99.90
2407;DHT22;37709;53.480;9.688;2022-07-29T02:57:44;10.60;99.90
2407;DHT22;37709;53.480;9.688;2022-07-29T03:00:23;10.60;99.90
2407;DHT22;37709;53.480;9.688;2022-07-29T03:02:57;10.60;99.90
2407;DHT22;37709;53.480;9.688;2022-07-29T03:05:26;10.60;99.90
2407;DHT22;37709;53.480;9.688;2022-07-29T03:08:04;10.60;99.90
2407;DHT22;37709;53.480;9.688;2022-07-29T03:10:33;10.60;99.90
2407;DHT22;37709;53.480;9.688;2022-07-29T03:13:01;10.60;99.90
2407;DHT22;37709;53.480;9.688;2022-07-29T03:15:30;10.60;99.90
2407;DHT22;37709;53.480;9.688;2022-07-29T03:17:59;10.60;99.90
2407;DHT22;37709;53.480;9.688;2022-07-29T03:20:27;10.60;99.90
2407;DHT22;37709;53.480;9.688;2022-07-29T03:22:54;10.60;99.90
2407;DHT22;37709;53.480;9.688;2022-07-29T03:25:22;10.70;99.90
2407;DHT22;37709;53.480;9.688;2022-07-29T03:27:51;10.60;99.90
2407;DHT22;37709;53.480;9.688;2022-07-29T03:30:18;10.70;99.90
2407;DHT22;37709;53.480;9.688;2022-07-29T03:32:49;10.60;99.90
2407;DHT22;37709;53.480;9.688;2022-07-29T03:35:19;10.60;99.90
2407;DHT22;37709;53.480;9.688;2022-07-29T03:37:47;10.60;99.90
2407;DHT22;37709;53.480;9.688;2022-07-29T03:40:22;10.60;99.90
2407;DHT22;37709;53.480;9.688;2022-07-29T03:42:51;10.50;99.90
2407;DHT22;37709;53.480;9.688;2022-07-29T03:45:21;10.50;99.90
2407;DHT22;37709;53.480;9.688;2022-07-29T03:47:57;10.50;99.90
2407;DHT22;37709;53.480;9.688;2022-07-29T03:50:29;10.60;99.90
2407;DHT22;37709;53.480;9.688;2022-07-29T03:52:58;10.50;99.90
2407;DHT22;37709;53.480;9.688;2022-07-29T03:55:26;10.50;99.90
2407;DHT22;37709;53.480;9.688;2022-07-29T03:57:56;10.50;99.90
2407;DHT22;37709;53.480;9.688;2022-07-29T04:00:24;10.60;99.90
2407;DHT22;37709;53.480;9.688;2022-07-29T04:02:52;10.60;99.90
2407;DHT22;37709;53.480;9.688;2022-07-29T04:05:20;10.70;99.90
2407;DHT22;37709;53.480;9.688;2022-07-29T04:07:48;10.70;99.90
2407;DHT22;37709;53.480;9.688;2022-07-29T04:10:16;10.80;99.90
2407;DHT22;37709;53.480;9.688;2022-07-29T04:12:58;10.90;99.90
2407;DHT22;37709;53.480;9.688;2022-07-29T04:15:27;11.00;99.90
2407;DHT22;37709;53.480;9.688;2022-07-29T04:17:58;11.10;99.90
2407;DHT22;37709;53.480;9.688;2022-07-29T04:20:26;11.20;99.90
2407;DHT22;37709;53.480;9.688;2022-07-29T04:22:54;11.20;99.90
2407;DHT22;37709;53.480;9.688;2022-07-29T04:25:23;11.30;99.90
2407;DHT22;37709;53.480;9.688;2022-07-29T04:27:51;11.50;99.90
2407;DHT22;37709;53.480;9.688;2022-07-29T04:30:28;11.60;99.90
2407;DHT22;37709;53.480;9.688;2022-07-29T04:32:56;11.70;99.90
2407;DHT22;37709;53.480;9.688;2022-07-29T04:35:23;11.90;99.90
2407;DHT22;37709;53.480;9.688;2022-07-29T04:37:54;11.90;99.90
2407;DHT22;37709;53.480;9.688;2022-07-29T04:40:22;12.00;99.90
2407;DHT22;37709;53.480;9.688;2022-07-29T04:42:49;12.10;99.90
2407;DHT22;37709;53.480;9.688;2022-07-29T04:45:17;12.10;99.90
2407;DHT22;37709;53.480;9.688;2022-07-29T04:47:49;12.20;99.90
2407;DHT22;37709;53.480;9.688;2022-07-29T04:50:17;12.20;99.90
2407;DHT22;37709;53.480;9.688;2022-07-29T04:52:44;12.30;99.90
2407;DHT22;37709;53.480;9.688;2022-07-29T04:55:12;12.40;99.90
2407;DHT22;37709;53.480;9.688;2022-07-29T04:57:39;12.60;99.90
2407;DHT22;37709;53.480;9.688;2022-07-29T05:00:07;12.60;99.90
2407;DHT22;37709;53.480;9.688;2022-07-29T05:02:35;12.70;99.90
2407;DHT22;37709;53.480;9.688;2022-07-29T05:05:03;12.70;99.90
2407;DHT22;37709;53.480;9.688;2022-07-29T05:07:30;12.80;99.90
2407;DHT22;37709;53.480;9.688;2022-07-29T05:09:58;12.90;99.90
2407;DHT22;37709;53.480;9.688;2022-07-29T05:12:25;12.90;99.90
2407;DHT22;37709;53.480;9.688;2022-07-29T05:14:53;13.10;99.90
2407;DHT22;37709;53.480;9.688;2022-07-29T05:17:21;13.20;99.90
2407;DHT22;37709;53.480;9.688;2022-07-29T05:19:49;13.30;99.90
2407;DHT22;37709;53.480;9.688;2022-07-29T05:22:19;13.40;99.90
2407;DHT22;37709;53.480;9.688;2022-07-29T05:24:47;13.50;99.90
2407;DHT22;37709;53.480;9.688;2022-07-29T05:27:14;13.60;99.90
2407;DHT22;37709;53.480;9.688;2022-07-29T05:29:41;13.70;99.90
2407;DHT22;37709;53.480;9.688;2022-07-29T05:32:12;13.80;99.90
2407;DHT22;37709;53.480;9.688;2022-07-29T05:34:41;13.90;99.90
2407;DHT22;37709;53.480;9.688;2022-07-29T05:37:20;14.10;99.90
2407;DHT22;37709;53.480;9.688;2022-07-29T05:39:48;14.30;99.90
2407;DHT22;37709;53.480;9.688;2022-07-29T05:42:24;14.30;99.90
2407;DHT22;37709;53.480;9.688;2022-07-29T05:44:52;14.50;99.90
2407;DHT22;37709;53.480;9.688;2022-07-29T05:47:20;14.60;99.90
2407;DHT22;37709;53.480;9.688;2022-07-29T05:49:48;14.70;99.90
2407;DHT22;37709;53.480;9.688;2022-07-29T05:52:16;14.80;99.90
2407;DHT22;37709;53.480;9.688;2022-07-29T05:54:43;15.00;99.90
2407;DHT22;37709;53.480;9.688;2022-07-29T05:57:22;15.10;99.90
2407;DHT22;37709;53.480;9.688;2022-07-29T05:59:53;15.40;99.90
2407;DHT22;37709;53.480;9.688;2022-07-29T06:02:21;15.50;99.90
2407;DHT22;37709;53.480;9.688;2022-07-29T06:04:48;15.70;99.90
2407;DHT22;37709;53.480;9.688;2022-07-29T06:07:16;15.90;99.90
2407;DHT22;37709;53.480;9.688;2022-07-29T06:09:44;16.00;99.90
2407;DHT22;37709;53.480;9.688;2022-07-29T06:12:11;16.20;99.90
2407;DHT22;37709;53.480;9.688;2022-07-29T06:14:38;16.30;99.90
2407;DHT22;37709;53.480;9.688;2022-07-29T06:17:06;16.50;99.90
2407;DHT22;37709;53.480;9.688;2022-07-29T06:19:34;16.70;99.90
2407;DHT22;37709;53.480;9.688;2022-07-29T06:22:02;16.90;99.90
2407;DHT22;37709;53.480;9.688;2022-07-29T06:24:30;17.10;99.90
2407;DHT22;37709;53.480;9.688;2022-07-29T06:26:58;17.20;99.90
2407;DHT22;37709;53.480;9.688;2022-07-29T06:29:26;17.30;99.90
2407;DHT22;37709;53.480;9.688;2022-07-29T06:31:55;17.40;99.90
2407;DHT22;37709;53.480;9.688;2022-07-29T06:34:23;17.40;99.90
2407;DHT22;37709;53.480;9.688;2022-07-29T06:36:50;17.50;99.90
2407;DHT22;37709;53.480;9.688;2022-07-29T06:39:20;17.70;99.90
2407;DHT22;37709;53.480;9.688;2022-07-29T06:41:49;18.10;99.90
2407;DHT22;37709;53.480;9.688;2022-07-29T06:44:18;18.40;99.90
2407;DHT22;37709;53.480;9.688;2022-07-29T06:46:46;18.90;99.90
2407;DHT22;37709;53.480;9.688;2022-07-29T06:49:16;19.00;99.90
2407;DHT22;37709;53.480;9.688;2022-07-29T06:51:44;19.00;99.90
2407;DHT22;37709;53.480;9.688;2022-07-29T06:54:12;19.00;99.90
2407;DHT22;37709;53.480;9.688;2022-07-29T06:56:40;19.10;99.90
2407;DHT22;37709;53.480;9.688;2022-07-29T06:59:10;19.10;99.90
2407;DHT22;37709;53.480;9.688;2022-07-29T07:01:40;19.10;99.90
2407;DHT22;37709;53.480;9.688;2022-07-29T07:04:09;19.10;99.90
2407;DHT22;37709;53.480;9.688;2022-07-29T07:06:37;19.20;99.90
2407;DHT22;37709;53.480;9.688;2022-07-29T07:09:05;19.10;99.90
2407;DHT22;37709;53.480;9.688;2022-07-29T07:11:32;19.20;99.90
2407;DHT22;37709;53.480;9.688;2022-07-29T07:14:05;19.30;99.90
2407;DHT22;37709;53.480;9.688;2022-07-29T07:16:34;19.50;99.90
2407;DHT22;37709;53.480;9.688;2022-07-29T07:19:04;19.60;99.90
2407;DHT22;37709;53.480;9.688;2022-07-29T07:21:32;19.70;99.90
2407;DHT22;37709;53.480;9.688;2022-07-29T07:24:03;19.80;99.90
2407;DHT22;37709;53.480;9.688;2022-07-29T07:26:31;19.90;99.90
2407;DHT22;37709;53.480;9.688;2022-07-29T07:29:00;20.20;99.90
2407;DHT22;37709;53.480;9.688;2022-07-29T07:31:27;20.40;99.90
2407;DHT22;37709;53.480;9.688;2022-07-29T07:33:56;20.80;99.90
2407;DHT22;37709;53.480;9.688;2022-07-29T07:36:25;20.90;99.90
2407;DHT22;37709;53.480;9.688;2022-07-29T07:38:52;21.20;99.90
2407;DHT22;37709;53.480;9.688;2022-07-29T07:41:20;21.40;99.70
2407;DHT22;37709;53.480;9.688;2022-07-29T07:43:48;21.50;99.70
2407;DHT22;37709;53.480;9.688;2022-07-29T07:46:15;21.70;99.60
2407;DHT22;37709;53.480;9.688;2022-07-29T07:48:43;22.00;98.90
2407;DHT22;37709;53.480;9.688;2022-07-29T07:51:10;22.10;98.60
2407;DHT22;37709;53.480;9.688;2022-07-29T07:53:38;22.20;98.30
2407;DHT22;37709;53.480;9.688;2022-07-29T07:56:06;22.10;97.90
2407;DHT22;37709;53.480;9.688;2022-07-29T07:58:39;22.10;98.00
2407;DHT22;37709;53.480;9.688;2022-07-29T08:01:08;22.10;98.00
2407;DHT22;37709;53.480;9.688;2022-07-29T08:03:35;22.00;97.50
2407;DHT22;37709;53.480;9.688;2022-07-29T08:06:03;22.20;97.60
2407;DHT22;37709;53.480;9.688;2022-07-29T08:08:31;22.40;97.20
2407;DHT22;37709;53.480;9.688;2022-07-29T08:10:59;22.60;97.00
2407;DHT22;37709;53.480;9.688;2022-07-29T08:13:36;22.90;96.50
2407;DHT22;37709;53.480;9.688;2022-07-29T08:16:05;23.20;96.10
2407;DHT22;37709;53.480;9.688;2022-07-29T08:18:42;23.50;96.20
2407;DHT22;37709;53.480;9.688;2022-07-29T08:21:11;23.70;95.40
2407;DHT22;37709;53.480;9.688;2022-07-29T08:23:43;23.90;95.20
2407;DHT22;37709;53.480;9.688;2022-07-29T08:26:26;24.00;94.80
2407;DHT22;37709;53.480;9.688;2022-07-29T08:28:53;24.00;94.20
2407;DHT22;37709;53.480;9.688;2022-07-29T08:31:21;24.20;94.10
2407;DHT22;37709;53.480;9.688;2022-07-29T08:33:48;24.50;93.70
2407;DHT22;37709;53.480;9.688;2022-07-29T08:36:16;24.90;93.00
2407;DHT22;37709;53.480;9.688;2022-07-29T08:38:44;25.10;92.30
2407;DHT22;37709;53.480;9.688;2022-07-29T08:41:11;25.50;92.30
2407;DHT22;37709;53.480;9.688;2022-07-29T08:43:40;25.90;90.90
2407;DHT22;37709;53.480;9.688;2022-07-29T08:46:09;25.90;90.10
2407;DHT22;37709;53.480;9.688;2022-07-29T08:48:37;25.90;90.50
2407;DHT22;37709;53.480;9.688;2022-07-29T08:51:07;25.70;90.80
2407;DHT22;37709;53.480;9.688;2022-07-29T08:53:36;25.60;91.70
2407;DHT22;37709;53.480;9.688;2022-07-29T08:56:06;25.40;91.70
2407;DHT22;37709;53.480;9.688;2022-07-29T08:58:33;25.30;91.70
2407;DHT22;37709;53.480;9.688;2022-07-29T09:01:04;25.20;91.60
2407;DHT22;37709;53.480;9.688;2022-07-29T09:03:39;25.20;91.90
2407;DHT22;37709;53.480;9.688;2022-07-29T09:06:07;25.10;91.90
2407;DHT22;37709;53.480;9.688;2022-07-29T09:08:35;24.90;91.80
2407;DHT22;37709;53.480;9.688;2022-07-29T09:11:03;24.80;92.00
2407;DHT22;37709;53.480;9.688;2022-07-29T09:13:31;24.60;92.00
2407;DHT22;37709;53.480;9.688;2022-07-29T09:15:59;24.60;91.90
2407;DHT22;37709;53.480;9.688;2022-07-29T09:18:42;24.60;91.80
2407;DHT22;37709;53.480;9.688;2022-07-29T09:21:12;24.60;91.70
2407;DHT22;37709;53.480;9.688;2022-07-29T09:26:42;24.90;92.00
2407;DHT22;37709;53.480;9.688;2022-07-29T09:29:15;25.10;92.50
2407;DHT22;37709;53.480;9.688;2022-07-29T09:31:49;25.20;92.10
2407;DHT22;37709;53.480;9.688;2022-07-29T09:34:25;25.40;91.40
2407;DHT22;37709;53.480;9.688;2022-07-29T09:36:54;25.60;90.40
2407;DHT22;37709;53.480;9.688;2022-07-29T09:39:32;25.70;90.40
2407;DHT22;37709;53.480;9.688;2022-07-29T09:42:05;25.90;89.00
2407;DHT22;37709;53.480;9.688;2022-07-29T09:44:48;26.30;90.00
2407;DHT22;37709;53.480;9.688;2022-07-29T09:47:17;26.50;88.00
2407;DHT22;37709;53.480;9.688;2022-07-29T09:49:54;26.70;88.70
2407;DHT22;37709;53.480;9.688;2022-07-29T09:52:21;27.10;88.10
2407;DHT22;37709;53.480;9.688;2022-07-29T09:54:49;27.40;87.20
2407;DHT22;37709;53.480;9.688;2022-07-29T09:57:26;27.80;86.50
2407;DHT22;37709;53.480;9.688;2022-07-29T10:00:06;28.60;83.50
2407;DHT22;37709;53.480;9.688;2022-07-29T10:02:43;30.10;80.90
2407;DHT22;37709;53.480;9.688;2022-07-29T10:05:22;31.70;73.40
2407;DHT22;37709;53.480;9.688;2022-07-29T10:07:52;32.20;67.90
2407;DHT22;37709;53.480;9.688;2022-07-29T10:10:28;32.40;65.00
2407;DHT22;37709;53.480;9.688;2022-07-29T10:12:59;32.60;61.40
2407;DHT22;37709;53.480;9.688;2022-07-29T10:15:36;32.50;60.90
2407;DHT22;37709;53.480;9.688;2022-07-29T10:18:08;32.80;61.20
2407;DHT22;37709;53.480;9.688;2022-07-29T10:20:37;33.10;58.50
2407;DHT22;37709;53.480;9.688;2022-07-29T10:23:05;33.00;57.10
2407;DHT22;37709;53.480;9.688;2022-07-29T10:25:33;32.80;56.90
2407;DHT22;37709;53.480;9.688;2022-07-29T10:28:01;33.20;57.00
2407;DHT22;37709;53.480;9.688;2022-07-29T10:30:28;33.50;55.20
2407;DHT22;37709;53.480;9.688;2022-07-29T10:36:22;35.00;52.70
2407;DHT22;37709;53.480;9.688;2022-07-29T10:39:11;35.50;53.10
2407;DHT22;37709;53.480;9.688;2022-07-29T10:44:46;38.00;46.60
2407;DHT22;37709;53.480;9.688;2022-07-29T10:47:26;39.60;43.10
2407;DHT22;37709;53.480;9.688;2022-07-29T10:49:58;40.00;43.30
2407;DHT22;37709;53.480;9.688;2022-07-29T10:55:37;39.30;40.30
2407;DHT22;37709;53.480;9.688;2022-07-29T10:58:19;39.90;41.20
2407;DHT22;37709;53.480;9.688;2022-07-29T11:00:52;39.90;40.40
2407;DHT22;37709;53.480;9.688;2022-07-29T11:03:43;39.60;40.90
2407;DHT22;37709;53.480;9.688;2022-07-29T11:06:17;38.10;38.30
2407;DHT22;37709;53.480;9.688;2022-07-29T11:09:16;37.70;40.10
2407;DHT22;37709;53.480;9.688;2022-07-29T11:11:52;37.20;40.00
2407;DHT22;37709;53.480;9.688;2022-07-29T11:14:55;35.60;40.80
2407;DHT22;37709;53.480;9.688;2022-07-29T11:17:23;35.40;42.20
2407;DHT22;37709;53.480;9.688;2022-07-29T11:19:51;36.40;42.20
2407;DHT22;37709;53.480;9.688;2022-07-29T11:22:35;36.90;40.90
2407;DHT22;37709;53.480;9.688;2022-07-29T11:25:13;36.70;39.70
2407;DHT22;37709;53.480;9.688;2022-07-29T11:27:44;37.10;40.30
2407;DHT22;37709;53.480;9.688;2022-07-29T11:30:12;37.20;38.00
2407;DHT22;37709;53.480;9.688;2022-07-29T11:32:42;37.60;38.90
2407;DHT22;37709;53.480;9.688;2022-07-29T11:35:31;37.80;36.40
2407;DHT22;37709;53.480;9.688;2022-07-29T11:38:31;37.40;36.40
2407;DHT22;37709;53.480;9.688;2022-07-29T11:43:51;40.50;35.20
2407;DHT22;37709;53.480;9.688;2022-07-29T11:46:49;41.40;32.20
2407;DHT22;37709;53.480;9.688;2022-07-29T11:49:25;43.00;32.90
2407;DHT22;37709;53.480;9.688;2022-07-29T11:51:59;43.90;31.50
2407;DHT22;37709;53.480;9.688;2022-07-29T11:54:33;44.80;30.60
2407;DHT22;37709;53.480;9.688;2022-07-29T11:57:21;46.00;29.70
2407;DHT22;37709;53.480;9.688;2022-07-29T11:59:48;46.60;28.80
2407;DHT22;37709;53.480;9.688;2022-07-29T12:02:17;47.00;27.40
2407;DHT22;37709;53.480;9.688;2022-07-29T12:05:04;47.40;28.20
2407;DHT22;37709;53.480;9.688;2022-07-29T12:07:38;47.30;27.40
2407;DHT22;37709;53.480;9.688;2022-07-29T12:10:11;47.00;27.50
2407;DHT22;37709;53.480;9.688;2022-07-29T12:12:51;47.80;26.20
2407;DHT22;37709;53.480;9.688;2022-07-29T12:15:20;47.70;26.70
2407;DHT22;37709;53.480;9.688;2022-07-29T12:17:48;48.20;26.00
2407;DHT22;37709;53.480;9.688;2022-07-29T12:20:24;47.70;25.10
2407;DHT22;37709;53.480;9.688;2022-07-29T12:22:51;47.70;25.20
2407;DHT22;37709;53.480;9.688;2022-07-29T12:25:23;47.60;26.00
2407;DHT22;37709;53.480;9.688;2022-07-29T12:28:05;48.20;25.40
2407;DHT22;37709;53.480;9.688;2022-07-29T12:30:46;48.30;24.60
2407;DHT22;37709;53.480;9.688;2022-07-29T12:35:57;49.10;25.00
2407;DHT22;37709;53.480;9.688;2022-07-29T12:38:34;49.60;24.70
2407;DHT22;37709;53.480;9.688;2022-07-29T12:41:03;49.80;23.80
2407;DHT22;37709;53.480;9.688;2022-07-29T12:43:31;49.90;23.90
2407;DHT22;37709;53.480;9.688;2022-07-29T12:46:14;48.60;23.00
2407;DHT22;37709;53.480;9.688;2022-07-29T12:48:43;48.50;24.70
2407;DHT22;37709;53.480;9.688;2022-07-29T12:51:12;49.00;23.70
2407;DHT22;37709;53.480;9.688;2022-07-29T12:54:05;49.40;23.70
2407;DHT22;37709;53.480;9.688;2022-07-29T12:56:34;49.50;23.00
2407;DHT22;37709;53.480;9.688;2022-07-29T12:59:15;48.50;23.20
2407;DHT22;37709;53.480;9.688;2022-07-29T13:01:44;48.90;23.50
2407;DHT22;37709;53.480;9.688;2022-07-29T13:04:27;47.60;23.50
2407;DHT22;37709;53.480;9.688;2022-07-29T13:07:02;46.80;23.80
2407;DHT22;37709;53.480;9.688;2022-07-29T13:09:50;44.70;25.10
2407;DHT22;37709;53.480;9.688;2022-07-29T13:12:18;44.40;26.60
2407;DHT22;37709;53.480;9.688;2022-07-29T13:14:47;44.80;25.90
2407;DHT22;37709;53.480;9.688;2022-07-29T13:17:20;45.00;25.60
2407;DHT22;37709;53.480;9.688;2022-07-29T13:19:52;43.40;26.00
2407;DHT22;37709;53.480;9.688;2022-07-29T13:22:25;42.40;27.00
2407;DHT22;37709;53.480;9.688;2022-07-29T13:24:55;41.40;27.50
2407;DHT22;37709;53.480;9.688;2022-07-29T13:27:28;40.70;28.30
2407;DHT22;37709;53.480;9.688;2022-07-29T13:29:57;40.00;29.30
2407;DHT22;37709;53.480;9.688;2022-07-29T13:32:28;39.10;30.00
2407;DHT22;37709;53.480;9.688;2022-07-29T13:34:57;38.50;31.10
2407;DHT22;37709;53.480;9.688;2022-07-29T13:37:25;37.80;30.80
2407;DHT22;37709;53.480;9.688;2022-07-29T13:39:53;37.10;32.10
2407;DHT22;37709;53.480;9.688;2022-07-29T13:42:22;36.40;32.20
2407;DHT22;37709;53.480;9.688;2022-07-29T13:44:49;36.30;33.00
2407;DHT22;37709;53.480;9.688;2022-07-29T13:47:22;36.20;34.80
2407;DHT22;37709;53.480;9.688;2022-07-29T13:50:04;36.10;34.40
2407;DHT22;37709;53.480;9.688;2022-07-29T13:52:33;36.70;34.30
2407;DHT22;37709;53.480;9.688;2022-07-29T13:55:02;38.30;31.50
2407;DHT22;37709;53.480;9.688;2022-07-29T13:57:30;40.40;30.40
2407;DHT22;37709;53.480;9.688;2022-07-29T13:59:58;42.20;28.40
2407;DHT22;37709;53.480;9.688;2022-07-29T14:02:25;43.50;28.00
2407;DHT22;37709;53.480;9.688;2022-07-29T14:04:53;44.40;26.80
2407;DHT22;37709;53.480;9.688;2022-07-29T14:07:21;45.00;26.10
2407;DHT22;37709;53.480;9.688;2022-07-29T14:09:50;45.30;26.00
2407;DHT22;37709;53.480;9.688;2022-07-29T14:12:18;45.20;25.00
2407;DHT22;37709;53.480;9.688;2022-07-29T14:14:46;44.60;24.70
2407;DHT22;37709;53.480;9.688;2022-07-29T14:17:15;44.80;24.90
2407;DHT22;37709;53.480;9.688;2022-07-29T14:19:42;44.90;25.50
2407;DHT22;37709;53.480;9.688;2022-07-29T14:22:10;44.50;26.00
2407;DHT22;37709;53.480;9.688;2022-07-29T14:24:38;44.30;25.90
2407;DHT22;37709;53.480;9.688;2022-07-29T14:27:07;44.40;26.00
2407;DHT22;37709;53.480;9.688;2022-07-29T14:29:35;44.40;25.50
2407;DHT22;37709;53.480;9.688;2022-07-29T14:32:05;43.40;25.90
2407;DHT22;37709;53.480;9.688;2022-07-29T14:34:34;43.00;26.30
2407;DHT22;37709;53.480;9.688;2022-07-29T14:37:03;41.60;25.50
2407;DHT22;37709;53.480;9.688;2022-07-29T14:39:33;41.20;27.80
2407;DHT22;37709;53.480;9.688;2022-07-29T14:42:09;41.10;27.70
2407;DHT22;37709;53.480;9.688;2022-07-29T14:44:40;40.70;27.60
2407;DHT22;37709;53.480;9.688;2022-07-29T14:47:09;40.20;28.10
2407;DHT22;37709;53.480;9.688;2022-07-29T14:49:37;39.70;29.40
2407;DHT22;37709;53.480;9.688;2022-07-29T14:52:04;38.90;32.30
2407;DHT22;37709;53.480;9.688;2022-07-29T14:54:32;38.40;33.60
2407;DHT22;37709;53.480;9.688;2022-07-29T14:56:59;38.20;34.40
2407;DHT22;37709;53.480;9.688;2022-07-29T14:59:26;37.30;35.20
2407;DHT22;37709;53.480;9.688;2022-07-29T15:01:54;37.10;35.60
2407;DHT22;37709;53.480;9.688;2022-07-29T15:04:21;36.90;36.00
2407;DHT22;37709;53.480;9.688;2022-07-29T15:06:49;36.70;36.10
2407;DHT22;37709;53.480;9.688;2022-07-29T15:09:17;36.50;36.60
2407;DHT22;37709;53.480;9.688;2022-07-29T15:11:45;36.80;36.80
2407;DHT22;37709;53.480;9.688;2022-07-29T15:14:13;36.90;36.80
2407;DHT22;37709;53.480;9.688;2022-07-29T15:16:40;37.20;37.60
2407;DHT22;37709;53.480;9.688;2022-07-29T15:19:13;37.50;36.20
2407;DHT22;37709;53.480;9.688;2022-07-29T15:21:40;37.20;36.10
2407;DHT22;37709;53.480;9.688;2022-07-29T15:24:16;37.20;36.00
2407;DHT22;37709;53.480;9.688;2022-07-29T15:26:44;37.30;36.50
2407;DHT22;37709;53.480;9.688;2022-07-29T15:29:12;37.50;36.30
2407;DHT22;37709;53.480;9.688;2022-07-29T15:31:40;37.30;37.00
2407;DHT22;37709;53.480;9.688;2022-07-29T15:34:08;36.80;36.60
2407;DHT22;37709;53.480;9.688;2022-07-29T15:36:35;36.40;37.10
2407;DHT22;37709;53.480;9.688;2022-07-29T15:39:21;36.10;37.60
2407;DHT22;37709;53.480;9.688;2022-07-29T15:41:49;35.50;38.00
2407;DHT22;37709;53.480;9.688;2022-07-29T15:44:17;35.00;38.40
2407;DHT22;37709;53.480;9.688;2022-07-29T15:46:48;34.30;39.40
2407;DHT22;37709;53.480;9.688;2022-07-29T15:49:37;33.80;40.10
2407;DHT22;37709;53.480;9.688;2022-07-29T15:52:17;33.50;41.10
2407;DHT22;37709;53.480;9.688;2022-07-29T15:54:56;33.40;41.20
2407;DHT22;37709;53.480;9.688;2022-07-29T15:57:24;33.00;41.50
2407;DHT22;37709;53.480;9.688;2022-07-29T15:59:52;32.90;41.90
2407;DHT22;37709;53.480;9.688;2022-07-29T16:02:20;32.70;42.40
2407;DHT22;37709;53.480;9.688;2022-07-29T16:04:47;32.60;42.30
2407;DHT22;37709;53.480;9.688;2022-07-29T16:07:15;32.30;42.80
2407;DHT22;37709;53.480;9.688;2022-07-29T16:09:43;32.10;43.20
2407;DHT22;37709;53.480;9.688;2022-07-29T16:12:17;31.80;43.90
2407;DHT22;37709;53.480;9.688;2022-07-29T16:14:44;31.50;44.50
2407;DHT22;37709;53.480;9.688;2022-07-29T16:17:16;31.40;45.00
2407;DHT22;37709;53.480;9.688;2022-07-29T16:19:43;31.20;45.50
2407;DHT22;37709;53.480;9.688;2022-07-29T16:22:11;30.90;45.60
2407;DHT22;37709;53.480;9.688;2022-07-29T16:24:41;30.60;45.90
2407;DHT22;37709;53.480;9.688;2022-07-29T16:27:09;30.30;46.80
2407;DHT22;37709;53.480;9.688;2022-07-29T16:29:37;30.10;47.50
2407;DHT22;37709;53.480;9.688;2022-07-29T16:32:05;29.80;48.20
2407;DHT22;37709;53.480;9.688;2022-07-29T16:34:33;29.60;48.30